Coe Leni — A8VR8 — position and weather

sailwx.info

Track history (hours):
 
Tides and Currents Weather Stations Pressure Air Temp Water Temp Dewpoint Dewpoint Depression Visibility Wind Speed Wind Dir Waves Ship Positions

Coe Leni

Last reported at 2017-Nov-26 08:06 UTC. Time now 2017-Dec-13 22:49 UTC.
Position N 49°49' W 003°36'.
Warning: this ship's position is 17 days out of date.

Length 138 m; draft 6.1 m.

Type: Ship. MMSI: 636092036.

Date/timePositionNaut miles runAvg speedWind from/ knotsBaromVisibWave heightAir tempDewpointWater temp
2017-Nov-26 08:06N 49°49' W 003°36'1014.5
2017-Nov-26 07:27N 49°53' W 003°22'614.5
2017-Nov-26 07:00N 49°54' W 003°13'815.0
2017-Nov-26 06:30N 49°56' W 003°02'815.5
2017-Nov-26 05:59N 49°59' W 002°50'715.6
2017-Nov-26 05:30N 50°01' W 002°38'2215.1
2017-Nov-26 04:03N 50°07' W 002°06'214.9
2017-Nov-26 03:55N 50°08' W 002°03'614.3
2017-Nov-26 03:30N 50°09' W 001°54'714.0
2017-Nov-26 03:00N 50°12' W 001°44'713.7
2017-Nov-26 02:30N 50°14' W 001°34'612.9
2017-Nov-26 02:00N 50°17' W 001°24'4312.3
2017-Nov-25 22:30N 50°28' W 000°20'713.6
2017-Nov-25 22:00N 50°30' W 000°09'713.8
2017-Nov-25 21:30N 50°32' E 000°01'814.1
2017-Nov-25 20:58N 50°34' E 000°13'714.2
2017-Nov-25 20:30N 50°35' E 000°23'714.6
2017-Nov-25 20:00N 50°37' E 000°34'714.9
2017-Nov-25 19:30N 50°41' E 000°44'714.7
2017-Nov-25 19:00N 50°45' E 000°54'1414.4
2017-Nov-25 18:02N 50°52' E 001°13'114.2
2017-Nov-25 18:00N 50°52' E 001°14'713.9
2017-Nov-25 17:30N 50°57' E 001°21'713.4
2017-Nov-25 17:00N 51°02' E 001°28'612.9
2017-Nov-25 16:30N 51°07' E 001°35'612.7
2017-Nov-25 16:00N 51°11' E 001°43'613.0
2017-Nov-25 15:30N 51°16' E 001°49'713.7
2017-Nov-25 15:00N 51°22' E 001°55'611.5
2017-Nov-25 14:30N 51°24' E 002°03'713.7
2017-Nov-25 14:00N 51°21' E 002°13'713.4
2017-Nov-25 13:30N 51°22' E 002°24'714.4
2017-Nov-25 13:00N 51°23' E 002°35'612.9
2017-Nov-25 12:31N 51°23' E 002°45'714.9
2017-Nov-25 12:00N 51°25' E 002°57'714.5
2017-Nov-25 11:30N 51°24' E 003°09'815.0
2017-Nov-25 11:00N 51°25' E 003°21'815.6
2017-Nov-25 10:30N 51°26' E 003°33'611.6
2017-Nov-25 10:00N 51°25' E 003°42'714.8
2017-Nov-25 09:30N 51°21' E 003°52'714.7
2017-Nov-25 09:00N 51°26' E 004°01'612.8
2017-Nov-25 08:31N 51°23' E 004°09'510.9
2017-Nov-25 08:01N 51°20' E 004°16'4 7.7
2017-Nov-25 07:31N 51°16' E 004°17'0 0.3
2017-Nov-25 07:00N 51°16' E 004°17'2 3.1
2017-Nov-25 06:29N 51°15' E 004°14'0 0.0
2017-Nov-25 05:59N 51°15' E 004°14'0 0.0
2017-Nov-25 05:29N 51°15' E 004°14'0 0.0
2017-Nov-25 04:59N 51°15' E 004°14'0 0.0
2017-Nov-25 04:29N 51°15' E 004°14'0 0.0
2017-Nov-25 03:59N 51°15' E 004°14'0 0.0
2017-Nov-25 03:29N 51°15' E 004°14'0 0.0
2017-Nov-25 02:59N 51°15' E 004°14'0 0.0
2017-Nov-25 02:29N 51°15' E 004°14'0 0.0
2017-Nov-25 01:59N 51°15' E 004°14'0 0.0
2017-Nov-25 01:29N 51°15' E 004°14'0 0.0
2017-Nov-25 00:59N 51°15' E 004°14'0 0.0
2017-Nov-25 00:29N 51°15' E 004°14'0 0.0
2017-Nov-24 23:59N 51°15' E 004°14'0 0.0
2017-Nov-24 23:29N 51°15' E 004°14'0 0.0
2017-Nov-24 22:56N 51°15' E 004°14'0 0.0
2017-Nov-24 22:29N 51°15' E 004°14'0 0.0
2017-Nov-24 21:59N 51°15' E 004°14'0 0.0
2017-Nov-24 21:29N 51°15' E 004°14'0 0.0
2017-Nov-24 20:59N 51°15' E 004°14'0 0.0
2017-Nov-24 20:29N 51°15' E 004°14'0 0.0
2017-Nov-24 19:59N 51°15' E 004°14'0 0.0
2017-Nov-24 19:29N 51°15' E 004°14'0 0.0
2017-Nov-24 18:59N 51°15' E 004°14'0 0.0
2017-Nov-24 18:29N 51°15' E 004°14'0 0.0
2017-Nov-24 17:59N 51°15' E 004°14'0 0.0
2017-Nov-24 17:29N 51°15' E 004°14'0 0.0
2017-Nov-24 16:59N 51°15' E 004°14'0 0.0
2017-Nov-24 16:29N 51°15' E 004°14'0 0.0
2017-Nov-24 15:53N 51°15' E 004°14'0 0.0
2017-Nov-24 15:29N 51°15' E 004°14'0 0.0
2017-Nov-24 14:59N 51°15' E 004°14'0 0.0
2017-Nov-24 14:26N 51°15' E 004°14'0 0.0
2017-Nov-24 13:59N 51°15' E 004°14'1 1.2
2017-Nov-24 13:30N 51°16' E 004°14'1 1.7
2017-Nov-24 13:00N 51°17' E 004°15'1 2.3
2017-Nov-24 12:30N 51°18' E 004°16'3 6.0
2017-Nov-24 12:00N 51°21' E 004°16'3 6.1
2017-Nov-24 11:30N 51°23' E 004°13'510.5
2017-Nov-24 11:00N 51°22' E 004°04'510.1
2017-Nov-24 10:30N 51°26' E 003°59'612.6
2017-Nov-24 10:00N 51°21' E 003°52'612.2
2017-Nov-24 09:30N 51°23' E 003°43'510.1
2017-Nov-24 09:00N 51°26' E 003°37'5 9.3
2017-Nov-24 08:30N 51°28' E 003°30'713.3
2017-Nov-24 08:00N 51°34' E 003°24'913.8
2017-Nov-24 07:22N 51°41' E 003°17'11913.0
2017-Nov-23 22:09N 53°29' E 004°42'1 9.5
2017-Nov-23 22:00N 53°30' E 004°44'5 9.3
2017-Nov-23 21:30N 53°31' E 004°51'5 9.3
2017-Nov-23 21:00N 53°33' E 004°58'5 9.3
2017-Nov-23 20:30N 53°35' E 005°06'10111.7
2017-Nov-23 11:51N 54°01' E 007°51'412.0
2017-Nov-23 11:30N 54°01' E 007°59'712.4
2017-Nov-23 10:56N 54°01' E 008°10'511.7
2017-Nov-23 10:30N 54°00' E 008°19'613.0
2017-Nov-23 10:00N 53°59' E 008°30'714.3
2017-Nov-23 09:30N 53°55' E 008°40'815.8
2017-Nov-23 09:00N 53°50' E 008°51'917.3
2017-Nov-23 08:30N 53°53' E 009°05'612.6
2017-Nov-23 08:00N 53°52' E 009°16'817.0
2017-Nov-23 07:30N 53°46' E 009°24'816.0
2017-Nov-23 07:00N 53°39' E 009°31'714.1
2017-Nov-23 06:30N 53°34' E 009°40'5 9.9
2017-Nov-23 06:00N 53°33' E 009°48'4 8.1
2017-Nov-23 05:30N 53°33' E 009°55'2 4.9
2017-Nov-23 05:00N 53°32' E 009°59'0 0.0
2017-Nov-23 04:30N 53°32' E 009°59'0 0.0
2017-Nov-23 04:00N 53°32' E 009°59'0 0.0
2017-Nov-23 03:30N 53°32' E 009°59'0 0.0
2017-Nov-23 03:00N 53°32' E 009°59'0 0.0
2017-Nov-23 02:30N 53°32' E 009°59'0 0.0
2017-Nov-23 02:00N 53°32' E 009°59'0 0.0
2017-Nov-23 01:30N 53°32' E 009°59'0 0.0
2017-Nov-23 01:00N 53°32' E 009°59'0 0.0
2017-Nov-23 00:30N 53°32' E 009°59'0 0.0
2017-Nov-23 00:00N 53°32' E 009°59'0 0.0
2017-Nov-22 23:30N 53°32' E 009°59'0 0.0
2017-Nov-22 23:00N 53°32' E 009°59'0 0.0
2017-Nov-22 22:30N 53°32' E 009°59'0 0.0
2017-Nov-22 22:00N 53°32' E 009°59'0 0.0
2017-Nov-22 21:30N 53°32' E 009°59'0 0.0
2017-Nov-22 21:00N 53°32' E 009°59'0 0.0
2017-Nov-22 20:30N 53°32' E 009°59'0 0.0
2017-Nov-22 20:00N 53°32' E 009°59'0 0.0
2017-Nov-22 19:30N 53°32' E 009°59'  
2017-Nov-19 20:56N 51°34' E 002°18'612.8
2017-Nov-19 20:30N 51°29' E 002°12'612.6
2017-Nov-19 20:00N 51°24' E 002°07'713.1
2017-Nov-19 19:30N 51°17' E 002°06'612.3
2017-Nov-19 19:00N 51°12' E 002°01'612.3
2017-Nov-19 18:30N 51°09' E 001°52'611.5
2017-Nov-19 18:00N 51°06' E 001°45'611.5
2017-Nov-19 17:30N 51°02' E 001°39'612.5
2017-Nov-19 17:00N 50°57' E 001°32'5712.6
2017-Nov-19 12:27N 50°24' E 000°18'614.1
2017-Nov-19 12:00N 50°22' E 000°09'914.5
2017-Nov-19 11:24N 50°20' W 000°04'4716.6
2017-Nov-19 08:35N 50°06' W 001°14'117.6
2017-Nov-19 08:30N 50°06' W 001°16'917.9
2017-Nov-19 08:01N 50°04' W 001°30'1117.9
2017-Nov-19 07:25N 50°01' W 001°46'717.9
2017-Nov-19 07:00N 49°59' W 001°57'3316.1
2017-Nov-19 04:57N 49°49' W 002°46'13514.1
2017-Nov-18 19:23N 48°40' W 005°44'712.3
2017-Nov-18 18:49N 48°33' W 005°43'4 9.7
2017-Nov-18 18:27N 48°30' W 005°41'4 9.1
2017-Nov-18 17:58N 48°26' W 005°39'1812.2
2017-Nov-18 16:29N 48°09' W 005°30'915.4
2017-Nov-18 15:54N 48°00' W 005°25'815.6
2017-Nov-18 15:24N 47°53' W 005°21'715.5
2017-Nov-18 14:56N 47°47' W 005°17'715.5
2017-Nov-18 14:30N 47°40' W 005°14'815.5
2017-Nov-18 14:00N 47°33' W 005°10'1015.5
2017-Nov-18 13:23N 47°24' W 005°05'615.5
2017-Nov-18 12:59N 47°18' W 005°02'815.4
2017-Nov-18 12:29N 47°11' W 004°58'715.6
2017-Nov-18 12:01N 47°04' W 004°55'815.5
2017-Nov-18 11:28N 46°56' W 004°51'1815.5
2017-Nov-18 10:17N 46°38' W 004°42'515.2
2017-Nov-18 09:59N 46°34' W 004°40'815.1
2017-Nov-18 09:28N 46°27' W 004°37'15714.5
2017-Nov-17 22:39N 43°58' W 003°22'214.6
2017-Nov-17 22:30N 43°57' W 003°21'714.6
2017-Nov-17 22:00N 43°50' W 003°18'714.8
2017-Nov-17 21:30N 43°43' W 003°15'714.9
2017-Nov-17 21:00N 43°36' W 003°11'714.7
2017-Nov-17 20:30N 43°29' W 003°08'713.7
2017-Nov-17 20:01N 43°22' W 003°04'3 5.4
2017-Nov-17 19:31N 43°20' W 003°02'0 0.1
2017-Nov-17 18:58N 43°20' W 003°02'0 0.0
2017-Nov-17 18:28N 43°20' W 003°02'0 0.0
2017-Nov-17 17:59N 43°20' W 003°02'0 0.0
2017-Nov-17 17:29N 43°20' W 003°02'0 0.0
2017-Nov-17 16:59N 43°20' W 003°02'0 0.0
2017-Nov-17 16:28N 43°20' W 003°02'0 0.0
2017-Nov-17 15:59N 43°20' W 003°02'0 0.0
2017-Nov-17 15:29N 43°20' W 003°02'0 0.0
2017-Nov-17 14:59N 43°20' W 003°02'0 0.0
2017-Nov-17 14:29N 43°20' W 003°02'0 0.0
2017-Nov-17 13:58N 43°20' W 003°02'0 0.0
2017-Nov-17 13:28N 43°20' W 003°02'0 0.0
2017-Nov-17 12:58N 43°20' W 003°02'0 0.0
2017-Nov-17 12:28N 43°20' W 003°02'0 0.0
2017-Nov-17 11:58N 43°20' W 003°02'0 0.0
2017-Nov-17 11:28N 43°20' W 003°02'0 0.0
2017-Nov-17 10:58N 43°20' W 003°02'0 0.0
2017-Nov-17 10:28N 43°20' W 003°02'0 0.0
2017-Nov-17 09:58N 43°20' W 003°02'0 0.0
2017-Nov-17 09:28N 43°20' W 003°02'0 0.0
2017-Nov-17 08:58N 43°20' W 003°02'0 0.0
2017-Nov-17 08:28N 43°20' W 003°02'0 0.0
2017-Nov-17 07:58N 43°20' W 003°02'0 0.0
2017-Nov-17 07:28N 43°20' W 003°02'0 0.0
2017-Nov-17 06:58N 43°20' W 003°02'0 0.0
2017-Nov-17 06:30N 43°20' W 003°02'0 0.0
2017-Nov-17 06:00N 43°20' W 003°02'0 0.0
2017-Nov-17 05:30N 43°20' W 003°02'2 4.0
2017-Nov-17 05:00N 43°22' W 003°03'5 9.9
2017-Nov-17 04:30N 43°26' W 003°08'510.9
2017-Nov-17 04:00N 43°29' W 003°14'611.2
2017-Nov-17 03:30N 43°33' W 003°20'611.8
2017-Nov-17 03:00N 43°34' W 003°28'611.7
2017-Nov-17 02:30N 43°34' W 003°36'611.4
2017-Nov-17 02:00N 43°35' W 003°44'611.4
2017-Nov-17 01:30N 43°36' W 003°52'611.4
2017-Nov-17 01:00N 43°36' W 003°59'611.5
2017-Nov-17 00:30N 43°37' W 004°07'611.7
2017-Nov-17 00:00N 43°38' W 004°15'611.6
2017-Nov-16 23:30N 43°39' W 004°23'4913.5
2017-Nov-16 19:53N 43°48' W 005°30'7713.4
2017-Nov-16 14:10N 43°51' W 007°16'213.7
2017-Nov-16 14:00N 43°50' W 007°19'713.9
2017-Nov-16 13:29N 43°51' W 007°29'713.6
2017-Nov-16 13:00N 43°52' W 007°38'1113.4
2017-Nov-16 12:10N 43°51' W 007°53'214.0
2017-Nov-16 12:01N 43°51' W 007°56'  
Track history (hours):
 
Tides and Currents Weather Stations Pressure Air Temp Water Temp Dewpoint Dewpoint Depression Visibility Wind Speed Wind Dir Waves Ship Positions

Coe Leni

Last reported at 2017-Nov-26 08:06 UTC. Time now 2017-Dec-13 22:49 UTC.
Position N 49°49' W 003°36'.
Warning: this ship's position is 17 days out of date.

Length 138 m; draft 6.1 m.

Type: Ship. MMSI: 636092036.

Date/timePositionNaut miles runAvg speedWind from/ knotsBaromVisibWave heightAir tempDewpointWater temp
2017-Nov-26 08:06N 49°49' W 003°36'1014.5
2017-Nov-26 07:27N 49°53' W 003°22'614.5
2017-Nov-26 07:00N 49°54' W 003°13'815.0
2017-Nov-26 06:30N 49°56' W 003°02'815.5
2017-Nov-26 05:59N 49°59' W 002°50'715.6
2017-Nov-26 05:30N 50°01' W 002°38'2215.1
2017-Nov-26 04:03N 50°07' W 002°06'214.9
2017-Nov-26 03:55N 50°08' W 002°03'614.3
2017-Nov-26 03:30N 50°09' W 001°54'714.0
2017-Nov-26 03:00N 50°12' W 001°44'713.7
2017-Nov-26 02:30N 50°14' W 001°34'612.9
2017-Nov-26 02:00N 50°17' W 001°24'4312.3
2017-Nov-25 22:30N 50°28' W 000°20'713.6
2017-Nov-25 22:00N 50°30' W 000°09'713.8
2017-Nov-25 21:30N 50°32' E 000°01'814.1
2017-Nov-25 20:58N 50°34' E 000°13'714.2
2017-Nov-25 20:30N 50°35' E 000°23'714.6
2017-Nov-25 20:00N 50°37' E 000°34'714.9
2017-Nov-25 19:30N 50°41' E 000°44'714.7
2017-Nov-25 19:00N 50°45' E 000°54'1414.4
2017-Nov-25 18:02N 50°52' E 001°13'114.2
2017-Nov-25 18:00N 50°52' E 001°14'713.9
2017-Nov-25 17:30N 50°57' E 001°21'713.4
2017-Nov-25 17:00N 51°02' E 001°28'612.9
2017-Nov-25 16:30N 51°07' E 001°35'612.7
2017-Nov-25 16:00N 51°11' E 001°43'613.0
2017-Nov-25 15:30N 51°16' E 001°49'713.7
2017-Nov-25 15:00N 51°22' E 001°55'611.5
2017-Nov-25 14:30N 51°24' E 002°03'713.7
2017-Nov-25 14:00N 51°21' E 002°13'713.4
2017-Nov-25 13:30N 51°22' E 002°24'714.4
2017-Nov-25 13:00N 51°23' E 002°35'612.9
2017-Nov-25 12:31N 51°23' E 002°45'714.9
2017-Nov-25 12:00N 51°25' E 002°57'714.5
2017-Nov-25 11:30N 51°24' E 003°09'815.0
2017-Nov-25 11:00N 51°25' E 003°21'815.6
2017-Nov-25 10:30N 51°26' E 003°33'611.6
2017-Nov-25 10:00N 51°25' E 003°42'714.8
2017-Nov-25 09:30N 51°21' E 003°52'714.7
2017-Nov-25 09:00N 51°26' E 004°01'612.8
2017-Nov-25 08:31N 51°23' E 004°09'510.9
2017-Nov-25 08:01N 51°20' E 004°16'4 7.7
2017-Nov-25 07:31N 51°16' E 004°17'0 0.3
2017-Nov-25 07:00N 51°16' E 004°17'2 3.1
2017-Nov-25 06:29N 51°15' E 004°14'0 0.0
2017-Nov-25 05:59N 51°15' E 004°14'0 0.0
2017-Nov-25 05:29N 51°15' E 004°14'0 0.0
2017-Nov-25 04:59N 51°15' E 004°14'0 0.0
2017-Nov-25 04:29N 51°15' E 004°14'0 0.0
2017-Nov-25 03:59N 51°15' E 004°14'0 0.0
2017-Nov-25 03:29N 51°15' E 004°14'0 0.0
2017-Nov-25 02:59N 51°15' E 004°14'0 0.0
2017-Nov-25 02:29N 51°15' E 004°14'0 0.0
2017-Nov-25 01:59N 51°15' E 004°14'0 0.0
2017-Nov-25 01:29N 51°15' E 004°14'0 0.0
2017-Nov-25 00:59N 51°15' E 004°14'0 0.0
2017-Nov-25 00:29N 51°15' E 004°14'0 0.0
2017-Nov-24 23:59N 51°15' E 004°14'0 0.0
2017-Nov-24 23:29N 51°15' E 004°14'0 0.0
2017-Nov-24 22:56N 51°15' E 004°14'0 0.0
2017-Nov-24 22:29N 51°15' E 004°14'0 0.0
2017-Nov-24 21:59N 51°15' E 004°14'0 0.0
2017-Nov-24 21:29N 51°15' E 004°14'0 0.0
2017-Nov-24 20:59N 51°15' E 004°14'0 0.0
2017-Nov-24 20:29N 51°15' E 004°14'0 0.0
2017-Nov-24 19:59N 51°15' E 004°14'0 0.0
2017-Nov-24 19:29N 51°15' E 004°14'0 0.0
2017-Nov-24 18:59N 51°15' E 004°14'0 0.0
2017-Nov-24 18:29N 51°15' E 004°14'0 0.0
2017-Nov-24 17:59N 51°15' E 004°14'0 0.0
2017-Nov-24 17:29N 51°15' E 004°14'0 0.0
2017-Nov-24 16:59N 51°15' E 004°14'0 0.0
2017-Nov-24 16:29N 51°15' E 004°14'0 0.0
2017-Nov-24 15:53N 51°15' E 004°14'0 0.0
2017-Nov-24 15:29N 51°15' E 004°14'0 0.0
2017-Nov-24 14:59N 51°15' E 004°14'0 0.0
2017-Nov-24 14:26N 51°15' E 004°14'0 0.0
2017-Nov-24 13:59N 51°15' E 004°14'1 1.2
2017-Nov-24 13:30N 51°16' E 004°14'1 1.7
2017-Nov-24 13:00N 51°17' E 004°15'1 2.3
2017-Nov-24 12:30N 51°18' E 004°16'3 6.0
2017-Nov-24 12:00N 51°21' E 004°16'3 6.1
2017-Nov-24 11:30N 51°23' E 004°13'510.5
2017-Nov-24 11:00N 51°22' E 004°04'510.1
2017-Nov-24 10:30N 51°26' E 003°59'612.6
2017-Nov-24 10:00N 51°21' E 003°52'612.2
2017-Nov-24 09:30N 51°23' E 003°43'510.1
2017-Nov-24 09:00N 51°26' E 003°37'5 9.3
2017-Nov-24 08:30N 51°28' E 003°30'713.3
2017-Nov-24 08:00N 51°34' E 003°24'913.8
2017-Nov-24 07:22N 51°41' E 003°17'11913.0
2017-Nov-23 22:09N 53°29' E 004°42'1 9.5
2017-Nov-23 22:00N 53°30' E 004°44'5 9.3
2017-Nov-23 21:30N 53°31' E 004°51'5 9.3
2017-Nov-23 21:00N 53°33' E 004°58'5 9.3
2017-Nov-23 20:30N 53°35' E 005°06'10111.7
2017-Nov-23 11:51N 54°01' E 007°51'412.0
2017-Nov-23 11:30N 54°01' E 007°59'712.4
2017-Nov-23 10:56N 54°01' E 008°10'511.7
2017-Nov-23 10:30N 54°00' E 008°19'613.0
2017-Nov-23 10:00N 53°59' E 008°30'714.3
2017-Nov-23 09:30N 53°55' E 008°40'815.8
2017-Nov-23 09:00N 53°50' E 008°51'917.3
2017-Nov-23 08:30N 53°53' E 009°05'612.6
2017-Nov-23 08:00N 53°52' E 009°16'817.0
2017-Nov-23 07:30N 53°46' E 009°24'816.0
2017-Nov-23 07:00N 53°39' E 009°31'714.1
2017-Nov-23 06:30N 53°34' E 009°40'5 9.9
2017-Nov-23 06:00N 53°33' E 009°48'4 8.1
2017-Nov-23 05:30N 53°33' E 009°55'2 4.9
2017-Nov-23 05:00N 53°32' E 009°59'0 0.0
2017-Nov-23 04:30N 53°32' E 009°59'0 0.0
2017-Nov-23 04:00N 53°32' E 009°59'0 0.0
2017-Nov-23 03:30N 53°32' E 009°59'0 0.0
2017-Nov-23 03:00N 53°32' E 009°59'0 0.0
2017-Nov-23 02:30N 53°32' E 009°59'0 0.0
2017-Nov-23 02:00N 53°32' E 009°59'0 0.0
2017-Nov-23 01:30N 53°32' E 009°59'0 0.0
2017-Nov-23 01:00N 53°32' E 009°59'0 0.0
2017-Nov-23 00:30N 53°32' E 009°59'0 0.0
2017-Nov-23 00:00N 53°32' E 009°59'0 0.0
2017-Nov-22 23:30N 53°32' E 009°59'0 0.0
2017-Nov-22 23:00N 53°32' E 009°59'0 0.0
2017-Nov-22 22:30N 53°32' E 009°59'0 0.0
2017-Nov-22 22:00N 53°32' E 009°59'0 0.0
2017-Nov-22 21:30N 53°32' E 009°59'0 0.0
2017-Nov-22 21:00N 53°32' E 009°59'0 0.0
2017-Nov-22 20:30N 53°32' E 009°59'0 0.0
2017-Nov-22 20:00N 53°32' E 009°59'0 0.0
2017-Nov-22 19:30N 53°32' E 009°59'  
2017-Nov-19 20:56N 51°34' E 002°18'612.8
2017-Nov-19 20:30N 51°29' E 002°12'612.6
2017-Nov-19 20:00N 51°24' E 002°07'713.1
2017-Nov-19 19:30N 51°17' E 002°06'612.3
2017-Nov-19 19:00N 51°12' E 002°01'612.3
2017-Nov-19 18:30N 51°09' E 001°52'611.5
2017-Nov-19 18:00N 51°06' E 001°45'611.5
2017-Nov-19 17:30N 51°02' E 001°39'612.5
2017-Nov-19 17:00N 50°57' E 001°32'5712.6
2017-Nov-19 12:27N 50°24' E 000°18'614.1
2017-Nov-19 12:00N 50°22' E 000°09'914.5
2017-Nov-19 11:24N 50°20' W 000°04'4716.6
2017-Nov-19 08:35N 50°06' W 001°14'117.6
2017-Nov-19 08:30N 50°06' W 001°16'917.9
2017-Nov-19 08:01N 50°04' W 001°30'1117.9
2017-Nov-19 07:25N 50°01' W 001°46'717.9
2017-Nov-19 07:00N 49°59' W 001°57'3316.1
2017-Nov-19 04:57N 49°49' W 002°46'13514.1
2017-Nov-18 19:23N 48°40' W 005°44'712.3
2017-Nov-18 18:49N 48°33' W 005°43'4 9.7
2017-Nov-18 18:27N 48°30' W 005°41'4 9.1
2017-Nov-18 17:58N 48°26' W 005°39'1812.2
2017-Nov-18 16:29N 48°09' W 005°30'915.4
2017-Nov-18 15:54N 48°00' W 005°25'815.6
2017-Nov-18 15:24N 47°53' W 005°21'715.5
2017-Nov-18 14:56N 47°47' W 005°17'715.5
2017-Nov-18 14:30N 47°40' W 005°14'815.5
2017-Nov-18 14:00N 47°33' W 005°10'1015.5
2017-Nov-18 13:23N 47°24' W 005°05'615.5
2017-Nov-18 12:59N 47°18' W 005°02'815.4
2017-Nov-18 12:29N 47°11' W 004°58'715.6
2017-Nov-18 12:01N 47°04' W 004°55'815.5
2017-Nov-18 11:28N 46°56' W 004°51'1815.5
2017-Nov-18 10:17N 46°38' W 004°42'515.2
2017-Nov-18 09:59N 46°34' W 004°40'815.1
2017-Nov-18 09:28N 46°27' W 004°37'15714.5
2017-Nov-17 22:39N 43°58' W 003°22'214.6
2017-Nov-17 22:30N 43°57' W 003°21'714.6
2017-Nov-17 22:00N 43°50' W 003°18'714.8
2017-Nov-17 21:30N 43°43' W 003°15'714.9
2017-Nov-17 21:00N 43°36' W 003°11'714.7
2017-Nov-17 20:30N 43°29' W 003°08'713.7
2017-Nov-17 20:01N 43°22' W 003°04'3 5.4
2017-Nov-17 19:31N 43°20' W 003°02'0 0.1
2017-Nov-17 18:58N 43°20' W 003°02'0 0.0
2017-Nov-17 18:28N 43°20' W 003°02'0 0.0
2017-Nov-17 17:59N 43°20' W 003°02'0 0.0
2017-Nov-17 17:29N 43°20' W 003°02'0 0.0
2017-Nov-17 16:59N 43°20' W 003°02'0 0.0
2017-Nov-17 16:28N 43°20' W 003°02'0 0.0
2017-Nov-17 15:59N 43°20' W 003°02'0 0.0
2017-Nov-17 15:29N 43°20' W 003°02'0 0.0
2017-Nov-17 14:59N 43°20' W 003°02'0 0.0
2017-Nov-17 14:29N 43°20' W 003°02'0 0.0
2017-Nov-17 13:58N 43°20' W 003°02'0 0.0
2017-Nov-17 13:28N 43°20' W 003°02'0 0.0
2017-Nov-17 12:58N 43°20' W 003°02'0 0.0
2017-Nov-17 12:28N 43°20' W 003°02'0 0.0
2017-Nov-17 11:58N 43°20' W 003°02'0 0.0
2017-Nov-17 11:28N 43°20' W 003°02'0 0.0
2017-Nov-17 10:58N 43°20' W 003°02'0 0.0
2017-Nov-17 10:28N 43°20' W 003°02'0 0.0
2017-Nov-17 09:58N 43°20' W 003°02'0 0.0
2017-Nov-17 09:28N 43°20' W 003°02'0 0.0
2017-Nov-17 08:58N 43°20' W 003°02'0 0.0
2017-Nov-17 08:28N 43°20' W 003°02'0 0.0
2017-Nov-17 07:58N 43°20' W 003°02'0 0.0
2017-Nov-17 07:28N 43°20' W 003°02'0 0.0
2017-Nov-17 06:58N 43°20' W 003°02'0 0.0
2017-Nov-17 06:30N 43°20' W 003°02'0 0.0
2017-Nov-17 06:00N 43°20' W 003°02'0 0.0
2017-Nov-17 05:30N 43°20' W 003°02'2 4.0
2017-Nov-17 05:00N 43°22' W 003°03'5 9.9
2017-Nov-17 04:30N 43°26' W 003°08'510.9
2017-Nov-17 04:00N 43°29' W 003°14'611.2
2017-Nov-17 03:30N 43°33' W 003°20'611.8
2017-Nov-17 03:00N 43°34' W 003°28'611.7
2017-Nov-17 02:30N 43°34' W 003°36'611.4
2017-Nov-17 02:00N 43°35' W 003°44'611.4
2017-Nov-17 01:30N 43°36' W 003°52'611.4
2017-Nov-17 01:00N 43°36' W 003°59'611.5
2017-Nov-17 00:30N 43°37' W 004°07'611.7
2017-Nov-17 00:00N 43°38' W 004°15'611.6
2017-Nov-16 23:30N 43°39' W 004°23'4913.5
2017-Nov-16 19:53N 43°48' W 005°30'7713.4
2017-Nov-16 14:10N 43°51' W 007°16'213.7
2017-Nov-16 14:00N 43°50' W 007°19'713.9
2017-Nov-16 13:29N 43°51' W 007°29'713.6
2017-Nov-16 13:00N 43°52' W 007°38'1113.4
2017-Nov-16 12:10N 43°51' W 007°53'214.0
2017-Nov-16 12:01N 43°51' W 007°56'  

Dump ship's entire track history